sensor_id;sensor_type;location;lat;lon;timestamp;P1;durP1;ratioP1;P2;durP2;ratioP2
29236;SDS011;16266;50.866;4.398;2023-08-31T00:01:31;535.88;;;511.67;;
29236;SDS011;16266;50.866;4.398;2023-08-31T00:03:58;514.00;;;491.27;;
29236;SDS011;16266;50.866;4.398;2023-08-31T00:06:24;557.85;;;532.88;;
29236;SDS011;16266;50.866;4.398;2023-08-31T00:08:50;594.72;;;567.42;;
29236;SDS011;16266;50.866;4.398;2023-08-31T00:11:16;662.40;;;630.30;;
29236;SDS011;16266;50.866;4.398;2023-08-31T00:13:43;674.30;;;641.13;;
29236;SDS011;16266;50.866;4.398;2023-08-31T00:16:08;612.22;;;583.95;;
29236;SDS011;16266;50.866;4.398;2023-08-31T00:18:36;574.15;;;547.45;;
29236;SDS011;16266;50.866;4.398;2023-08-31T00:21:02;610.40;;;581.88;;
29236;SDS011;16266;50.866;4.398;2023-08-31T00:23:28;657.90;;;626.53;;
29236;SDS011;16266;50.866;4.398;2023-08-31T00:28:23;710.05;;;674.90;;
29236;SDS011;16266;50.866;4.398;2023-08-31T00:30:51;709.53;;;674.67;;
29236;SDS011;16266;50.866;4.398;2023-08-31T00:33:17;727.63;;;690.85;;
29236;SDS011;16266;50.866;4.398;2023-08-31T00:35:42;728.63;;;691.17;;
29236;SDS011;16266;50.866;4.398;2023-08-31T00:38:11;742.47;;;704.40;;
29236;SDS011;16266;50.866;4.398;2023-08-31T00:40:38;773.03;;;731.85;;
29236;SDS011;16266;50.866;4.398;2023-08-31T00:43:07;753.15;;;713.65;;
29236;SDS011;16266;50.866;4.398;2023-08-31T00:45:33;732.80;;;695.00;;
29236;SDS011;16266;50.866;4.398;2023-08-31T00:47:59;690.88;;;656.72;;
29236;SDS011;16266;50.866;4.398;2023-08-31T00:50:26;601.72;;;574.13;;
29236;SDS011;16266;50.866;4.398;2023-08-31T00:52:51;561.38;;;536.10;;
29236;SDS011;16266;50.866;4.398;2023-08-31T00:55:17;519.65;;;496.98;;
29236;SDS011;16266;50.866;4.398;2023-08-31T00:57:43;419.98;;;402.70;;
29236;SDS011;16266;50.866;4.398;2023-08-31T01:00:09;349.33;;;335.27;;
29236;SDS011;16266;50.866;4.398;2023-08-31T01:02:39;359.33;;;344.55;;
29236;SDS011;16266;50.866;4.398;2023-08-31T01:08:12;341.95;;;328.15;;
29236;SDS011;16266;50.866;4.398;2023-08-31T01:13:32;384.35;;;368.70;;
29236;SDS011;16266;50.866;4.398;2023-08-31T01:16:03;437.67;;;419.60;;
29236;SDS011;16266;50.866;4.398;2023-08-31T01:18:32;425.85;;;408.05;;
29236;SDS011;16266;50.866;4.398;2023-08-31T01:21:02;409.45;;;392.50;;
29236;SDS011;16266;50.866;4.398;2023-08-31T01:26:37;320.02;;;307.08;;
29236;SDS011;16266;50.866;4.398;2023-08-31T01:29:04;318.58;;;305.83;;
29236;SDS011;16266;50.866;4.398;2023-08-31T01:31:30;294.80;;;283.13;;
29236;SDS011;16266;50.866;4.398;2023-08-31T01:33:56;291.65;;;280.13;;
29236;SDS011;16266;50.866;4.398;2023-08-31T01:36:29;312.40;;;299.92;;
29236;SDS011;16266;50.866;4.398;2023-08-31T01:39:02;315.80;;;303.20;;
29236;SDS011;16266;50.866;4.398;2023-08-31T01:41:35;356.08;;;341.70;;
29236;SDS011;16266;50.866;4.398;2023-08-31T01:44:05;389.27;;;373.52;;
29236;SDS011;16266;50.866;4.398;2023-08-31T01:46:33;372.20;;;357.23;;
29236;SDS011;16266;50.866;4.398;2023-08-31T01:48:59;375.67;;;360.55;;
29236;SDS011;16266;50.866;4.398;2023-08-31T01:51:25;380.83;;;365.38;;
29236;SDS011;16266;50.866;4.398;2023-08-31T01:53:51;360.92;;;346.33;;
29236;SDS011;16266;50.866;4.398;2023-08-31T01:56:17;398.15;;;381.80;;
29236;SDS011;16266;50.866;4.398;2023-08-31T01:58:43;439.90;;;421.75;;
29236;SDS011;16266;50.866;4.398;2023-08-31T02:01:08;421.90;;;404.42;;
29236;SDS011;16266;50.866;4.398;2023-08-31T02:03:34;442.08;;;423.75;;
29236;SDS011;16266;50.866;4.398;2023-08-31T02:06:00;470.55;;;450.77;;
29236;SDS011;16266;50.866;4.398;2023-08-31T02:08:26;488.13;;;467.70;;
29236;SDS011;16266;50.866;4.398;2023-08-31T02:10:51;488.33;;;467.52;;
29236;SDS011;16266;50.866;4.398;2023-08-31T02:13:19;520.92;;;498.20;;
29236;SDS011;16266;50.866;4.398;2023-08-31T02:15:45;532.58;;;509.40;;
29236;SDS011;16266;50.866;4.398;2023-08-31T02:18:10;480.10;;;460.17;;
29236;SDS011;16266;50.866;4.398;2023-08-31T02:20:36;392.80;;;376.98;;
29236;SDS011;16266;50.866;4.398;2023-08-31T02:23:02;384.08;;;368.80;;
29236;SDS011;16266;50.866;4.398;2023-08-31T02:25:27;407.65;;;391.23;;
29236;SDS011;16266;50.866;4.398;2023-08-31T02:27:53;421.90;;;404.75;;
29236;SDS011;16266;50.866;4.398;2023-08-31T02:30:20;442.98;;;424.85;;
29236;SDS011;16266;50.866;4.398;2023-08-31T02:32:46;410.20;;;393.55;;
29236;SDS011;16266;50.866;4.398;2023-08-31T02:35:12;403.25;;;386.95;;
29236;SDS011;16266;50.866;4.398;2023-08-31T02:37:38;467.42;;;447.98;;
29236;SDS011;16266;50.866;4.398;2023-08-31T02:40:04;460.17;;;441.08;;
29236;SDS011;16266;50.866;4.398;2023-08-31T02:42:31;381.10;;;365.73;;
29236;SDS011;16266;50.866;4.398;2023-08-31T02:44:56;327.75;;;314.88;;
29236;SDS011;16266;50.866;4.398;2023-08-31T02:47:22;316.42;;;303.38;;
29236;SDS011;16266;50.866;4.398;2023-08-31T02:49:48;304.48;;;292.58;;
29236;SDS011;16266;50.866;4.398;2023-08-31T02:52:14;265.30;;;254.98;;
29236;SDS011;16266;50.866;4.398;2023-08-31T02:54:39;260.10;;;249.88;;
29236;SDS011;16266;50.866;4.398;2023-08-31T02:57:05;254.93;;;244.98;;
29236;SDS011;16266;50.866;4.398;2023-08-31T02:59:31;214.30;;;205.93;;
29236;SDS011;16266;50.866;4.398;2023-08-31T03:02:00;204.52;;;196.65;;
29236;SDS011;16266;50.866;4.398;2023-08-31T03:04:27;168.13;;;161.50;;
29236;SDS011;16266;50.866;4.398;2023-08-31T03:06:52;140.85;;;135.02;;
29236;SDS011;16266;50.866;4.398;2023-08-31T03:09:18;149.88;;;144.00;;
29236;SDS011;16266;50.866;4.398;2023-08-31T03:11:45;140.43;;;134.90;;
29236;SDS011;16266;50.866;4.398;2023-08-31T03:14:11;153.88;;;147.85;;
29236;SDS011;16266;50.866;4.398;2023-08-31T03:16:36;155.73;;;149.70;;
29236;SDS011;16266;50.866;4.398;2023-08-31T03:19:03;173.55;;;166.70;;
29236;SDS011;16266;50.866;4.398;2023-08-31T03:21:30;173.73;;;166.93;;
29236;SDS011;16266;50.866;4.398;2023-08-31T03:23:55;170.88;;;164.15;;
29236;SDS011;16266;50.866;4.398;2023-08-31T03:26:21;137.85;;;132.48;;
29236;SDS011;16266;50.866;4.398;2023-08-31T03:28:47;135.32;;;129.80;;
29236;SDS011;16266;50.866;4.398;2023-08-31T03:31:12;134.13;;;128.93;;
29236;SDS011;16266;50.866;4.398;2023-08-31T03:33:38;128.93;;;123.82;;
29236;SDS011;16266;50.866;4.398;2023-08-31T03:36:04;126.82;;;121.68;;
29236;SDS011;16266;50.866;4.398;2023-08-31T03:38:31;127.07;;;122.28;;
29236;SDS011;16266;50.866;4.398;2023-08-31T03:40:57;133.50;;;128.25;;
29236;SDS011;16266;50.866;4.398;2023-08-31T03:43:23;130.18;;;125.22;;
29236;SDS011;16266;50.866;4.398;2023-08-31T03:45:49;127.88;;;122.88;;
29236;SDS011;16266;50.866;4.398;2023-08-31T03:48:20;133.38;;;127.65;;
29236;SDS011;16266;50.866;4.398;2023-08-31T03:50:48;128.05;;;122.97;;
29236;SDS011;16266;50.866;4.398;2023-08-31T03:53:18;132.13;;;127.03;;
29236;SDS011;16266;50.866;4.398;2023-08-31T03:55:43;130.50;;;125.53;;
29236;SDS011;16266;50.866;4.398;2023-08-31T03:58:09;127.43;;;121.88;;
29236;SDS011;16266;50.866;4.398;2023-08-31T04:00:36;140.93;;;135.32;;
29236;SDS011;16266;50.866;4.398;2023-08-31T04:03:02;147.30;;;141.45;;
29236;SDS011;16266;50.866;4.398;2023-08-31T04:05:31;276.73;;;265.23;;
29236;SDS011;16266;50.866;4.398;2023-08-31T04:07:57;153.43;;;147.23;;
29236;SDS011;16266;50.866;4.398;2023-08-31T04:10:23;268.30;;;257.10;;
29236;SDS011;16266;50.866;4.398;2023-08-31T04:12:50;163.25;;;156.85;;
29236;SDS011;16266;50.866;4.398;2023-08-31T04:15:16;170.68;;;163.77;;
29236;SDS011;16266;50.866;4.398;2023-08-31T04:17:42;146.80;;;141.05;;
29236;SDS011;16266;50.866;4.398;2023-08-31T04:20:08;151.20;;;145.18;;
29236;SDS011;16266;50.866;4.398;2023-08-31T04:22:34;153.82;;;147.38;;
29236;SDS011;16266;50.866;4.398;2023-08-31T04:25:00;169.02;;;162.30;;
29236;SDS011;16266;50.866;4.398;2023-08-31T04:27:25;176.32;;;169.48;;
29236;SDS011;16266;50.866;4.398;2023-08-31T04:29:52;147.35;;;141.50;;
29236;SDS011;16266;50.866;4.398;2023-08-31T04:32:18;134.95;;;129.43;;
29236;SDS011;16266;50.866;4.398;2023-08-31T04:34:44;241.88;;;231.98;;
29236;SDS011;16266;50.866;4.398;2023-08-31T04:37:09;132.30;;;127.10;;
29236;SDS011;16266;50.866;4.398;2023-08-31T04:39:35;139.05;;;133.57;;
29236;SDS011;16266;50.866;4.398;2023-08-31T04:42:00;129.35;;;124.18;;
29236;SDS011;16266;50.866;4.398;2023-08-31T04:44:27;132.98;;;127.72;;
29236;SDS011;16266;50.866;4.398;2023-08-31T04:46:53;131.13;;;125.97;;
29236;SDS011;16266;50.866;4.398;2023-08-31T04:49:20;138.75;;;133.35;;
29236;SDS011;16266;50.866;4.398;2023-08-31T04:51:45;136.30;;;130.88;;
29236;SDS011;16266;50.866;4.398;2023-08-31T04:54:11;125.40;;;120.00;;
29236;SDS011;16266;50.866;4.398;2023-08-31T04:56:37;122.22;;;117.50;;
29236;SDS011;16266;50.866;4.398;2023-08-31T04:59:02;124.90;;;119.60;;
29236;SDS011;16266;50.866;4.398;2023-08-31T05:01:28;136.63;;;131.30;;
29236;SDS011;16266;50.866;4.398;2023-08-31T05:03:54;136.35;;;131.05;;
29236;SDS011;16266;50.866;4.398;2023-08-31T05:06:20;135.02;;;129.52;;
29236;SDS011;16266;50.866;4.398;2023-08-31T05:08:48;128.20;;;123.22;;
29236;SDS011;16266;50.866;4.398;2023-08-31T05:11:14;136.63;;;131.18;;
29236;SDS011;16266;50.866;4.398;2023-08-31T05:13:40;143.10;;;137.13;;
29236;SDS011;16266;50.866;4.398;2023-08-31T05:16:09;142.70;;;136.82;;
29236;SDS011;16266;50.866;4.398;2023-08-31T05:18:35;153.75;;;147.48;;
29236;SDS011;16266;50.866;4.398;2023-08-31T05:21:01;158.40;;;152.10;;
29236;SDS011;16266;50.866;4.398;2023-08-31T05:23:28;175.38;;;167.60;;
29236;SDS011;16266;50.866;4.398;2023-08-31T05:25:55;169.77;;;163.00;;
29236;SDS011;16266;50.866;4.398;2023-08-31T05:28:23;176.93;;;169.75;;
29236;SDS011;16266;50.866;4.398;2023-08-31T05:30:50;195.20;;;187.45;;
29236;SDS011;16266;50.866;4.398;2023-08-31T05:33:19;209.30;;;200.52;;
29236;SDS011;16266;50.866;4.398;2023-08-31T05:35:47;243.52;;;233.43;;
29236;SDS011;16266;50.866;4.398;2023-08-31T05:38:13;219.93;;;210.57;;
29236;SDS011;16266;50.866;4.398;2023-08-31T05:40:39;182.35;;;174.48;;
29236;SDS011;16266;50.866;4.398;2023-08-31T05:43:06;210.20;;;201.18;;
29236;SDS011;16266;50.866;4.398;2023-08-31T05:45:32;200.38;;;191.93;;
29236;SDS011;16266;50.866;4.398;2023-08-31T05:47:59;247.75;;;236.77;;
29236;SDS011;16266;50.866;4.398;2023-08-31T05:50:25;277.95;;;266.42;;
29236;SDS011;16266;50.866;4.398;2023-08-31T05:52:52;291.13;;;278.85;;
29236;SDS011;16266;50.866;4.398;2023-08-31T05:55:17;291.40;;;279.05;;
29236;SDS011;16266;50.866;4.398;2023-08-31T05:57:43;332.67;;;318.80;;
29236;SDS011;16266;50.866;4.398;2023-08-31T06:00:09;406.10;;;388.73;;
29236;SDS011;16266;50.866;4.398;2023-08-31T06:02:35;400.08;;;383.45;;
29236;SDS011;16266;50.866;4.398;2023-08-31T06:05:01;367.05;;;351.00;;
29236;SDS011;16266;50.866;4.398;2023-08-31T06:07:28;359.48;;;344.20;;
29236;SDS011;16266;50.866;4.398;2023-08-31T06:09:54;240.05;;;230.52;;
29236;SDS011;16266;50.866;4.398;2023-08-31T06:12:20;206.90;;;197.35;;
29236;SDS011;16266;50.866;4.398;2023-08-31T06:14:47;185.48;;;177.65;;
29236;SDS011;16266;50.866;4.398;2023-08-31T06:17:13;208.52;;;199.70;;
29236;SDS011;16266;50.866;4.398;2023-08-31T06:19:40;280.75;;;268.75;;
29236;SDS011;16266;50.866;4.398;2023-08-31T06:22:06;442.90;;;421.27;;
29236;SDS011;16266;50.866;4.398;2023-08-31T06:24:32;733.75;;;686.42;;
29236;SDS011;16266;50.866;4.398;2023-08-31T06:26:59;728.95;;;682.60;;
29236;SDS011;16266;50.866;4.398;2023-08-31T06:29:25;541.22;;;512.25;;
29236;SDS011;16266;50.866;4.398;2023-08-31T06:31:50;506.38;;;479.98;;
29236;SDS011;16266;50.866;4.398;2023-08-31T06:34:16;396.27;;;378.13;;
29236;SDS011;16266;50.866;4.398;2023-08-31T06:36:42;443.55;;;422.33;;
29236;SDS011;16266;50.866;4.398;2023-08-31T06:39:08;464.58;;;440.63;;
29236;SDS011;16266;50.866;4.398;2023-08-31T06:41:33;785.17;;;736.00;;
29236;SDS011;16266;50.866;4.398;2023-08-31T06:43:59;480.33;;;453.83;;
29236;SDS011;16266;50.866;4.398;2023-08-31T06:46:25;524.10;;;497.80;;
29236;SDS011;16266;50.866;4.398;2023-08-31T06:48:51;474.58;;;452.42;;
29236;SDS011;16266;50.866;4.398;2023-08-31T06:51:17;335.60;;;319.02;;
29236;SDS011;16266;50.866;4.398;2023-08-31T06:53:43;229.55;;;220.20;;
29236;SDS011;16266;50.866;4.398;2023-08-31T06:56:09;193.57;;;185.98;;
29236;SDS011;16266;50.866;4.398;2023-08-31T06:58:35;272.80;;;261.83;;
29236;SDS011;16266;50.866;4.398;2023-08-31T07:01:00;327.58;;;314.08;;
29236;SDS011;16266;50.866;4.398;2023-08-31T07:03:30;213.60;;;205.32;;
29236;SDS011;16266;50.866;4.398;2023-08-31T07:05:57;141.70;;;136.32;;
29236;SDS011;16266;50.866;4.398;2023-08-31T07:08:24;48.58;;;46.45;;
29236;SDS011;16266;50.866;4.398;2023-08-31T07:10:52;37.60;;;35.47;;
29236;SDS011;16266;50.866;4.398;2023-08-31T07:13:19;31.80;;;30.70;;
29236;SDS011;16266;50.866;4.398;2023-08-31T07:15:45;70.80;;;68.18;;
29236;SDS011;16266;50.866;4.398;2023-08-31T07:18:14;78.43;;;75.05;;
29236;SDS011;16266;50.866;4.398;2023-08-31T07:20:39;88.45;;;85.07;;
29236;SDS011;16266;50.866;4.398;2023-08-31T07:26:27;148.40;;;142.65;;
29236;SDS011;16266;50.866;4.398;2023-08-31T07:28:53;77.70;;;74.35;;
29236;SDS011;16266;50.866;4.398;2023-08-31T07:31:22;67.15;;;63.97;;
29236;SDS011;16266;50.866;4.398;2023-08-31T07:33:48;79.57;;;76.35;;
29236;SDS011;16266;50.866;4.398;2023-08-31T07:36:13;48.42;;;46.38;;
29236;SDS011;16266;50.866;4.398;2023-08-31T07:38:40;29.38;;;28.02;;
29236;SDS011;16266;50.866;4.398;2023-08-31T07:41:06;30.33;;;28.95;;
29236;SDS011;16266;50.866;4.398;2023-08-31T07:43:32;27.15;;;26.17;;
29236;SDS011;16266;50.866;4.398;2023-08-31T07:45:57;16.80;;;16.13;;
29236;SDS011;16266;50.866;4.398;2023-08-31T07:48:23;25.48;;;24.58;;
29236;SDS011;16266;50.866;4.398;2023-08-31T07:50:49;41.53;;;39.55;;
29236;SDS011;16266;50.866;4.398;2023-08-31T07:53:14;45.22;;;42.83;;
29236;SDS011;16266;50.866;4.398;2023-08-31T07:55:50;24.63;;;23.70;;
29236;SDS011;16266;50.866;4.398;2023-08-31T07:58:20;26.75;;;24.88;;
29236;SDS011;16266;50.866;4.398;2023-08-31T08:00:46;25.35;;;23.85;;
29236;SDS011;16266;50.866;4.398;2023-08-31T08:03:12;25.13;;;24.23;;
29236;SDS011;16266;50.866;4.398;2023-08-31T08:05:38;22.17;;;21.35;;
29236;SDS011;16266;50.866;4.398;2023-08-31T08:08:05;21.85;;;20.92;;
29236;SDS011;16266;50.866;4.398;2023-08-31T08:10:31;27.30;;;25.60;;
29236;SDS011;16266;50.866;4.398;2023-08-31T08:12:57;20.63;;;19.73;;
29236;SDS011;16266;50.866;4.398;2023-08-31T08:15:24;17.27;;;16.58;;
29236;SDS011;16266;50.866;4.398;2023-08-31T08:17:49;19.50;;;18.30;;
29236;SDS011;16266;50.866;4.398;2023-08-31T08:20:15;25.67;;;23.30;;
29236;SDS011;16266;50.866;4.398;2023-08-31T08:22:41;19.17;;;18.38;;
29236;SDS011;16266;50.866;4.398;2023-08-31T08:25:07;18.70;;;18.02;;
29236;SDS011;16266;50.866;4.398;2023-08-31T08:27:33;17.67;;;16.70;;
29236;SDS011;16266;50.866;4.398;2023-08-31T08:29:59;20.30;;;19.23;;
29236;SDS011;16266;50.866;4.398;2023-08-31T08:32:24;22.25;;;20.88;;
29236;SDS011;16266;50.866;4.398;2023-08-31T08:34:50;19.73;;;19.00;;
29236;SDS011;16266;50.866;4.398;2023-08-31T08:37:16;22.17;;;21.20;;
29236;SDS011;16266;50.866;4.398;2023-08-31T08:39:42;24.50;;;23.23;;
29236;SDS011;16266;50.866;4.398;2023-08-31T08:42:09;19.95;;;18.92;;
29236;SDS011;16266;50.866;4.398;2023-08-31T08:44:36;20.60;;;19.63;;
29236;SDS011;16266;50.866;4.398;2023-08-31T08:47:02;18.65;;;18.05;;
29236;SDS011;16266;50.866;4.398;2023-08-31T08:49:30;17.42;;;16.63;;
29236;SDS011;16266;50.866;4.398;2023-08-31T08:51:57;18.25;;;16.67;;
29236;SDS011;16266;50.866;4.398;2023-08-31T08:54:24;15.27;;;14.57;;
29236;SDS011;16266;50.866;4.398;2023-08-31T08:56:50;15.07;;;14.45;;
29236;SDS011;16266;50.866;4.398;2023-08-31T08:59:16;13.88;;;12.90;;
29236;SDS011;16266;50.866;4.398;2023-08-31T09:01:42;16.10;;;15.23;;
29236;SDS011;16266;50.866;4.398;2023-08-31T09:04:09;14.65;;;13.95;;
29236;SDS011;16266;50.866;4.398;2023-08-31T09:06:35;16.30;;;15.38;;
29236;SDS011;16266;50.866;4.398;2023-08-31T09:09:01;14.48;;;13.88;;
29236;SDS011;16266;50.866;4.398;2023-08-31T09:11:27;16.88;;;15.93;;
29236;SDS011;16266;50.866;4.398;2023-08-31T09:13:53;18.60;;;17.27;;
29236;SDS011;16266;50.866;4.398;2023-08-31T09:16:28;15.95;;;15.02;;
29236;SDS011;16266;50.866;4.398;2023-08-31T09:18:55;19.90;;;18.88;;
29236;SDS011;16266;50.866;4.398;2023-08-31T09:21:22;16.48;;;15.57;;
29236;SDS011;16266;50.866;4.398;2023-08-31T09:23:59;17.75;;;16.65;;
29236;SDS011;16266;50.866;4.398;2023-08-31T09:26:25;15.55;;;14.73;;
29236;SDS011;16266;50.866;4.398;2023-08-31T09:28:51;16.80;;;15.65;;
29236;SDS011;16266;50.866;4.398;2023-08-31T09:31:17;14.00;;;13.50;;
29236;SDS011;16266;50.866;4.398;2023-08-31T09:33:50;13.65;;;13.15;;
29236;SDS011;16266;50.866;4.398;2023-08-31T09:36:16;14.02;;;13.52;;
29236;SDS011;16266;50.866;4.398;2023-08-31T09:38:43;13.98;;;13.38;;
29236;SDS011;16266;50.866;4.398;2023-08-31T09:41:10;13.32;;;12.85;;
29236;SDS011;16266;50.866;4.398;2023-08-31T09:43:36;14.30;;;13.70;;
29236;SDS011;16266;50.866;4.398;2023-08-31T09:46:02;14.82;;;14.13;;
29236;SDS011;16266;50.866;4.398;2023-08-31T09:48:29;14.73;;;14.02;;
29236;SDS011;16266;50.866;4.398;2023-08-31T09:50:56;15.60;;;14.75;;
29236;SDS011;16266;50.866;4.398;2023-08-31T09:53:25;15.45;;;14.00;;
29236;SDS011;16266;50.866;4.398;2023-08-31T09:55:54;14.45;;;13.95;;
29236;SDS011;16266;50.866;4.398;2023-08-31T09:58:21;14.93;;;14.05;;
29236;SDS011;16266;50.866;4.398;2023-08-31T10:00:50;14.05;;;13.55;;
29236;SDS011;16266;50.866;4.398;2023-08-31T10:03:17;15.10;;;14.15;;
29236;SDS011;16266;50.866;4.398;2023-08-31T10:05:45;14.85;;;14.20;;
29236;SDS011;16266;50.866;4.398;2023-08-31T10:08:12;16.67;;;15.50;;
29236;SDS011;16266;50.866;4.398;2023-08-31T10:10:39;17.38;;;16.52;;
29236;SDS011;16266;50.866;4.398;2023-08-31T10:13:05;13.23;;;12.73;;
29236;SDS011;16266;50.866;4.398;2023-08-31T10:15:31;13.65;;;13.07;;
29236;SDS011;16266;50.866;4.398;2023-08-31T10:20:27;14.95;;;14.45;;
29236;SDS011;16266;50.866;4.398;2023-08-31T10:22:57;14.67;;;14.00;;
29236;SDS011;16266;50.866;4.398;2023-08-31T10:28:17;14.40;;;13.90;;
29236;SDS011;16266;50.866;4.398;2023-08-31T10:31:00;14.45;;;13.95;;
29236;SDS011;16266;50.866;4.398;2023-08-31T10:33:42;15.73;;;15.13;;
29236;SDS011;16266;50.866;4.398;2023-08-31T10:36:09;16.80;;;16.15;;
29236;SDS011;16266;50.866;4.398;2023-08-31T10:38:40;14.93;;;14.20;;
29236;SDS011;16266;50.866;4.398;2023-08-31T10:43:47;24.63;;;23.58;;
29236;SDS011;16266;50.866;4.398;2023-08-31T10:46:35;47.35;;;45.38;;
29236;SDS011;16266;50.866;4.398;2023-08-31T10:51:40;24.33;;;23.42;;
29236;SDS011;16266;50.866;4.398;2023-08-31T10:54:10;45.50;;;43.80;;
29236;SDS011;16266;50.866;4.398;2023-08-31T10:57:05;18.20;;;17.60;;
29236;SDS011;16266;50.866;4.398;2023-08-31T11:02:36;14.43;;;13.82;;
29236;SDS011;16266;50.866;4.398;2023-08-31T11:05:13;15.35;;;14.75;;
29236;SDS011;16266;50.866;4.398;2023-08-31T11:07:43;14.50;;;14.00;;
29236;SDS011;16266;50.866;4.398;2023-08-31T11:10:20;14.07;;;13.57;;
29236;SDS011;16266;50.866;4.398;2023-08-31T11:12:53;14.93;;;14.32;;
29236;SDS011;16266;50.866;4.398;2023-08-31T11:15:21;15.93;;;15.18;;
29236;SDS011;16266;50.866;4.398;2023-08-31T11:17:50;17.38;;;16.67;;
29236;SDS011;16266;50.866;4.398;2023-08-31T11:20:17;19.42;;;18.70;;
29236;SDS011;16266;50.866;4.398;2023-08-31T11:22:47;18.92;;;18.23;;
29236;SDS011;16266;50.866;4.398;2023-08-31T11:25:15;28.90;;;27.88;;
29236;SDS011;16266;50.866;4.398;2023-08-31T11:27:42;18.23;;;17.52;;
29236;SDS011;16266;50.866;4.398;2023-08-31T11:30:21;16.80;;;16.00;;
29236;SDS011;16266;50.866;4.398;2023-08-31T11:32:47;29.90;;;28.80;;
29236;SDS011;16266;50.866;4.398;2023-08-31T11:35:14;35.38;;;33.95;;
29236;SDS011;16266;50.866;4.398;2023-08-31T11:37:42;36.38;;;34.88;;
29236;SDS011;16266;50.866;4.398;2023-08-31T11:40:08;32.00;;;30.40;;
29236;SDS011;16266;50.866;4.398;2023-08-31T11:42:34;24.85;;;23.73;;
29236;SDS011;16266;50.866;4.398;2023-08-31T11:45:00;20.15;;;19.13;;
29236;SDS011;16266;50.866;4.398;2023-08-31T11:47:30;17.48;;;16.55;;
29236;SDS011;16266;50.866;4.398;2023-08-31T11:49:59;14.32;;;13.82;;
29236;SDS011;16266;50.866;4.398;2023-08-31T11:52:28;14.38;;;13.82;;
29236;SDS011;16266;50.866;4.398;2023-08-31T11:54:55;15.07;;;14.20;;
29236;SDS011;16266;50.866;4.398;2023-08-31T11:57:26;15.20;;;14.40;;
29236;SDS011;16266;50.866;4.398;2023-08-31T11:59:53;26.55;;;18.77;;
29236;SDS011;16266;50.866;4.398;2023-08-31T12:02:20;15.25;;;14.38;;
29236;SDS011;16266;50.866;4.398;2023-08-31T12:04:46;18.25;;;17.13;;
29236;SDS011;16266;50.866;4.398;2023-08-31T12:07:16;20.65;;;19.52;;
29236;SDS011;16266;50.866;4.398;2023-08-31T12:09:43;27.10;;;25.20;;
29236;SDS011;16266;50.866;4.398;2023-08-31T12:12:21;26.00;;;25.00;;
29236;SDS011;16266;50.866;4.398;2023-08-31T12:14:46;20.25;;;19.17;;
29236;SDS011;16266;50.866;4.398;2023-08-31T12:17:12;19.38;;;18.58;;
29236;SDS011;16266;50.866;4.398;2023-08-31T12:19:38;24.85;;;23.92;;
29236;SDS011;16266;50.866;4.398;2023-08-31T12:22:04;19.50;;;18.88;;
29236;SDS011;16266;50.866;4.398;2023-08-31T12:24:39;19.83;;;19.02;;
29236;SDS011;16266;50.866;4.398;2023-08-31T12:27:06;23.63;;;22.52;;
29236;SDS011;16266;50.866;4.398;2023-08-31T12:29:32;43.05;;;41.35;;
29236;SDS011;16266;50.866;4.398;2023-08-31T12:31:58;38.60;;;36.67;;
29236;SDS011;16266;50.866;4.398;2023-08-31T12:34:24;40.30;;;38.80;;
29236;SDS011;16266;50.866;4.398;2023-08-31T12:36:49;43.60;;;41.90;;
29236;SDS011;16266;50.866;4.398;2023-08-31T12:39:17;35.50;;;34.10;;
29236;SDS011;16266;50.866;4.398;2023-08-31T12:41:43;32.35;;;30.73;;
29236;SDS011;16266;50.866;4.398;2023-08-31T12:44:08;21.30;;;20.40;;
29236;SDS011;16266;50.866;4.398;2023-08-31T12:46:34;24.90;;;23.98;;
29236;SDS011;16266;50.866;4.398;2023-08-31T12:49:00;18.48;;;17.77;;
29236;SDS011;16266;50.866;4.398;2023-08-31T12:51:28;29.67;;;28.48;;
29236;SDS011;16266;50.866;4.398;2023-08-31T12:53:57;24.70;;;23.65;;
29236;SDS011;16266;50.866;4.398;2023-08-31T12:56:23;19.52;;;18.55;;
29236;SDS011;16266;50.866;4.398;2023-08-31T12:58:52;21.08;;;20.08;;
29236;SDS011;16266;50.866;4.398;2023-08-31T13:01:18;19.42;;;18.38;;
29236;SDS011;16266;50.866;4.398;2023-08-31T13:03:45;14.75;;;14.25;;
29236;SDS011;16266;50.866;4.398;2023-08-31T13:08:41;16.25;;;15.45;;
29236;SDS011;16266;50.866;4.398;2023-08-31T13:11:08;14.35;;;13.85;;
29236;SDS011;16266;50.866;4.398;2023-08-31T13:13:35;14.40;;;13.90;;
29236;SDS011;16266;50.866;4.398;2023-08-31T13:16:00;15.95;;;15.25;;
29236;SDS011;16266;50.866;4.398;2023-08-31T13:18:27;16.40;;;15.75;;
29236;SDS011;16266;50.866;4.398;2023-08-31T13:20:53;17.65;;;16.95;;
29236;SDS011;16266;50.866;4.398;2023-08-31T13:23:20;15.48;;;14.88;;
29236;SDS011;16266;50.866;4.398;2023-08-31T13:25:49;18.10;;;17.00;;
29236;SDS011;16266;50.866;4.398;2023-08-31T13:28:16;18.08;;;17.17;;
29236;SDS011;16266;50.866;4.398;2023-08-31T13:30:42;18.50;;;17.50;;
29236;SDS011;16266;50.866;4.398;2023-08-31T13:33:08;16.52;;;15.48;;
29236;SDS011;16266;50.866;4.398;2023-08-31T13:35:34;16.95;;;16.17;;
29236;SDS011;16266;50.866;4.398;2023-08-31T13:38:01;20.20;;;19.00;;
29236;SDS011;16266;50.866;4.398;2023-08-31T13:40:28;16.05;;;15.13;;
29236;SDS011;16266;50.866;4.398;2023-08-31T13:42:54;16.33;;;15.77;;
29236;SDS011;16266;50.866;4.398;2023-08-31T13:45:27;16.65;;;15.98;;
29236;SDS011;16266;50.866;4.398;2023-08-31T13:47:53;16.73;;;15.88;;
29236;SDS011;16266;50.866;4.398;2023-08-31T13:50:19;16.17;;;14.88;;
29236;SDS011;16266;50.866;4.398;2023-08-31T13:52:45;16.08;;;15.57;;
29236;SDS011;16266;50.866;4.398;2023-08-31T13:55:11;16.80;;;15.40;;
29236;SDS011;16266;50.866;4.398;2023-08-31T13:57:38;19.65;;;18.75;;
29236;SDS011;16266;50.866;4.398;2023-08-31T14:00:06;23.23;;;22.05;;
29236;SDS011;16266;50.866;4.398;2023-08-31T14:02:34;17.10;;;16.50;;
29236;SDS011;16266;50.866;4.398;2023-08-31T14:05:01;20.50;;;19.80;;
29236;SDS011;16266;50.866;4.398;2023-08-31T14:07:27;21.35;;;20.52;;
29236;SDS011;16266;50.866;4.398;2023-08-31T14:09:53;18.95;;;17.85;;
29236;SDS011;16266;50.866;4.398;2023-08-31T14:12:18;18.05;;;17.45;;
29236;SDS011;16266;50.866;4.398;2023-08-31T14:14:45;15.75;;;15.10;;
29236;SDS011;16266;50.866;4.398;2023-08-31T14:17:11;17.75;;;17.15;;
29236;SDS011;16266;50.866;4.398;2023-08-31T14:19:37;18.42;;;17.63;;
29236;SDS011;16266;50.866;4.398;2023-08-31T14:22:04;20.95;;;19.77;;
29236;SDS011;16266;50.866;4.398;2023-08-31T14:24:30;22.17;;;21.27;;
29236;SDS011;16266;50.866;4.398;2023-08-31T14:26:55;18.27;;;17.58;;
29236;SDS011;16266;50.866;4.398;2023-08-31T14:29:22;17.85;;;16.85;;
29236;SDS011;16266;50.866;4.398;2023-08-31T14:31:49;18.83;;;18.13;;
29236;SDS011;16266;50.866;4.398;2023-08-31T14:34:14;18.17;;;17.35;;
29236;SDS011;16266;50.866;4.398;2023-08-31T14:36:40;16.95;;;16.27;;
29236;SDS011;16266;50.866;4.398;2023-08-31T14:39:06;16.90;;;16.20;;